Time;durP1;ratioP1;P1;durP2;ratioP2;P2;SDS_P1;SDS_P2;PMS_P1;PMS_P2;Temp;Humidity;BMP_temperature;BMP_pressure;BME280_temperature;BME280_humidity;BME280_pressure;Samples;Min_cycle;Max_cycle;Signal;HPM_P1;HPM_P2
2022/02/05 00:05:37;;;;;;;11.22;9.53;;;;;;;6.28;82.16;99566.95;1714090;82;21417;-85
2022/02/05 00:40:47;;;;;;;18.60;12.55;;;;;;;6.30;81.62;99530.41;1671282;85;21739;-84
2022/02/05 00:42:59;;;;;;;18.48;11.55;;;;;;;6.29;81.52;99523.00;1667220;84;21633;-83
2022/02/05 00:45:28;;;;;;;12.78;8.55;;;;;;;6.29;81.55;99516.87;1671387;82;21041;-83
2022/02/05 00:47:56;;;;;;;11.20;8.00;;;;;;;6.27;81.38;99516.86;1749643;81;21012;-84
2022/02/05 00:50:26;;;;;;;14.35;9.38;;;;;;;6.25;81.36;99514.64;1759251;81;21588;-83
2022/02/05 00:55:35;;;;;;;18.30;12.00;;;;;;;6.24;81.32;99505.02;1612397;87;21487;-84
2022/02/05 00:58:03;;;;;;;17.10;10.40;;;;;;;6.26;81.41;99498.09;1612827;87;21028;-85
2022/02/05 01:00:30;;;;;;;18.30;11.68;;;;;;;6.26;81.33;99492.00;1612595;88;21009;-84
2022/02/05 01:02:57;;;;;;;14.90;9.30;;;;;;;6.27;81.30;99489.42;1613160;89;21491;-85
2022/02/05 01:05:24;;;;;;;12.80;8.50;;;;;;;6.27;81.26;99484.20;1577125;91;21818;-87
2022/02/05 01:07:51;;;;;;;11.28;7.53;;;;;;;6.29;81.27;99481.59;1578491;91;21044;-87
2022/02/05 01:10:17;;;;;;;12.82;8.98;;;;;;;6.31;81.25;99476.88;1577907;91;21058;-88
2022/02/05 01:12:51;;;;;;;13.95;7.22;;;;;;;6.32;81.21;99472.09;1578467;91;21087;-87
2022/02/05 01:15:13;;;;;;;13.28;8.98;;;;;;;6.34;81.17;99475.61;1579123;89;21042;-85
2022/02/05 01:17:46;;;;;;;10.25;7.22;;;;;;;6.36;81.17;99472.64;1578186;91;22529;-86
2022/02/05 01:22:43;;;;;;;;;;;;;;;6.35;81.12;99469.98;1580492;91;21052;-86
2022/02/05 01:25:12;;;;;;;15.18;9.35;;;;;;;6.31;81.13;99459.89;1578243;91;20149;-86
2022/02/05 01:27:48;;;;;;;14.75;9.10;;;;;;;6.30;81.16;99461.16;1578450;91;21070;-86
2022/02/05 01:30:31;;;;;;;16.32;9.53;;;;;;;6.25;81.13;99454.54;1579151;89;21929;-86
2022/02/05 01:33:05;;;;;;;18.80;10.18;;;;;;;6.19;81.13;99450.06;1746222;81;20992;-86
2022/02/05 01:36:01;;;;;;;13.18;8.65;;;;;;;6.17;81.23;99450.42;1749279;80;21004;-86
2022/02/05 01:49:12;;;;;;;9.23;5.90;;;;;;;6.06;81.58;99439.30;1731656;80;21005;-84
2022/02/05 01:51:44;;;;;;;8.85;5.78;;;;;;;6.03;81.60;99438.81;1722763;81;21421;-84
2022/02/05 01:56:46;;;;;;;10.05;5.17;;;;;;;5.99;81.69;99427.41;1726878;83;21764;-86
2022/02/05 02:09:47;;;;;;;6.03;4.65;;;;;;;5.89;81.74;99421.91;1726779;81;21768;-85
2022/02/05 02:12:10;;;;;;;7.45;4.08;;;;;;;5.90;81.82;99426.30;1724667;82;20954;-85
2022/02/05 02:20:24;;;;;;;7.62;4.12;;;;;;;5.87;81.82;99419.26;1618402;88;21022;-86
2022/02/05 02:22:52;;;;;;;6.15;4.35;;;;;;;5.87;81.83;99431.44;1677583;83;21871;-86
2022/02/05 02:28:06;;;;;;;4.72;3.25;;;;;;;5.86;81.83;99434.48;1726763;83;21537;-86
2022/02/05 02:30:27;;;;;;;3.75;2.85;;;;;;;5.82;81.82;99424.83;1724830;82;21481;-86
2022/02/05 02:33:00;;;;;;;4.42;2.77;;;;;;;5.81;81.80;99436.10;1726586;83;20950;-86
2022/02/05 02:35:24;;;;;;;3.22;2.35;;;;;;;5.75;81.68;99460.34;1725838;83;21754;-86
2022/02/05 02:37:56;;;;;;;2.67;2.10;;;;;;;5.71;81.45;99479.83;1726387;82;21447;-86
2022/02/05 02:43:05;;;;;;;9.25;6.10;;;;;;;5.39;79.62;99532.98;1726844;81;21223;-86
2022/02/05 02:45:29;;;;;;;3.15;2.00;;;;;;;5.09;79.20;99548.70;1726373;82;21550;-85
2022/02/05 02:47:55;;;;;;;2.52;2.08;;;;;;;4.77;78.66;99539.55;1728275;80;21741;-84
2022/02/05 02:58:23;;;;;;;0.80;0.80;;;;;;;3.82;79.21;99595.20;1736802;82;21549;-87
2022/02/05 03:00:50;;;;;;;74.55;35.15;;;;;;;3.65;79.44;99601.14;1736242;82;21734;-85
2022/02/05 03:03:15;;;;;;;13.45;7.08;;;;;;;3.55;79.65;99606.45;1736523;82;21029;-86
2022/02/05 03:05:42;;;;;;;2.47;1.70;;;;;;;3.46;79.82;99619.13;1736883;82;20981;-88
2022/02/05 03:08:09;;;;;;;1.27;0.82;;;;;;;3.35;79.88;99630.88;1736752;82;21136;-89
2022/02/05 03:10:35;;;;;;;0.45;0.45;;;;;;;3.27;79.96;99643.61;1736855;82;21021;-86
2022/02/05 03:13:02;;;;;;;0.50;0.40;;;;;;;3.20;80.12;99652.89;1736881;82;21741;-87
2022/02/05 03:15:37;;;;;;;0.40;0.40;;;;;;;3.17;80.30;99664.46;1736640;82;20962;-87
2022/02/05 03:18:05;;;;;;;0.40;0.37;;;;;;;3.10;80.05;99682.87;1735895;81;21514;-86
2022/02/05 03:20:31;;;;;;;0.75;0.50;;;;;;;3.01;80.13;99681.22;1717133;82;21066;-87
2022/02/05 03:23:00;;;;;;;0.37;0.37;;;;;;;2.93;80.22;99681.35;1736811;82;21539;-87
2022/02/05 03:25:31;;;;;;;1.30;0.60;;;;;;;2.84;80.26;99675.80;1735837;82;21743;-84
2022/02/05 03:27:58;;;;;;;1.05;0.40;;;;;;;2.79;80.47;99698.99;1735717;82;21000;-84
2022/02/05 03:30:25;;;;;;;1.25;0.53;;;;;;;2.76;80.60;99713.19;1735820;82;21001;-83
2022/02/05 03:32:51;;;;;;;0.40;0.40;;;;;;;2.72;80.56;99709.58;1735737;82;21040;-83
2022/02/05 03:35:18;;;;;;;0.45;0.40;;;;;;;2.67;80.79;99712.39;1735872;82;21601;-84
2022/02/05 03:37:45;;;;;;;1.15;0.70;;;;;;;2.64;80.94;99716.16;1735842;82;21803;-84
2022/02/05 03:40:12;;;;;;;0.85;0.57;;;;;;;2.60;80.84;99710.38;1735855;81;20954;-84
2022/02/05 03:42:39;;;;;;;0.40;0.40;;;;;;;2.59;81.00;99711.60;1714842;82;20989;-84
2022/02/05 03:45:08;;;;;;;0.33;0.33;;;;;;;2.56;81.08;99716.27;1714995;82;21029;-85
2022/02/05 03:47:34;;;;;;;0.78;0.53;;;;;;;2.54;81.15;99721.83;1736229;82;21048;-84
2022/02/05 03:50:03;;;;;;;0.40;0.40;;;;;;;2.51;81.19;99719.97;1735549;82;21815;-83
2022/02/05 03:52:30;;;;;;;2.08;0.50;;;;;;;2.49;81.28;99712.53;1735399;82;21012;-83
2022/02/05 03:54:56;;;;;;;1.98;0.40;;;;;;;2.49;81.36;99738.50;1735849;82;21024;-85
2022/02/05 03:57:23;;;;;;;0.68;0.50;;;;;;;2.46;81.39;99736.19;1736058;82;21159;-87
2022/02/05 03:59:50;;;;;;;0.40;0.40;;;;;;;2.48;81.54;99751.45;1736891;82;20993;-88
2022/02/05 04:02:17;;;;;;;1.22;0.60;;;;;;;2.50;81.57;99758.89;1736865;82;21826;-88
2022/02/05 04:04:44;;;;;;;0.95;0.47;;;;;;;2.56;81.67;99768.66;1736718;82;21029;-88
2022/02/05 04:07:10;;;;;;;0.42;0.42;;;;;;;2.60;81.69;99770.55;1736954;82;21457;-88
2022/02/05 04:09:41;;;;;;;0.90;0.47;;;;;;;2.66;81.73;99768.19;1736794;81;21486;-88
2022/02/05 04:17:30;;;;;;;1.90;0.68;;;;;;;2.85;81.77;99800.61;1736964;82;20974;-88
2022/02/05 04:19:57;;;;;;;2.05;0.95;;;;;;;2.91;81.74;99811.67;1735998;82;21017;-86
2022/02/05 04:22:23;;;;;;;2.55;1.10;;;;;;;2.97;81.73;99816.23;1735974;81;20981;-85
2022/02/05 04:24:50;;;;;;;2.85;0.90;;;;;;;3.04;81.79;99822.12;1735813;82;21005;-84
2022/02/05 04:27:17;;;;;;;2.75;0.98;;;;;;;3.12;81.74;99828.54;1735857;82;21753;-84
2022/02/05 04:29:44;;;;;;;4.55;1.17;;;;;;;3.18;81.75;99826.17;1735629;82;21052;-84
2022/02/05 04:32:13;;;;;;;2.77;0.90;;;;;;;3.25;81.77;99833.39;1735763;82;20965;-83
2022/02/05 04:34:39;;;;;;;6.20;1.47;;;;;;;3.31;81.72;99838.83;1735978;81;20962;-87
2022/02/05 04:37:06;;;;;;;5.15;1.55;;;;;;;3.36;81.64;99848.13;1736836;82;21007;-88
2022/02/05 04:39:34;;;;;;;6.83;1.60;;;;;;;3.41;81.60;99849.59;1736750;81;21740;-87
2022/02/05 04:42:12;;;;;;;6.83;1.62;;;;;;;3.46;81.56;99857.17;1736255;82;20985;-83
2022/02/05 04:55:26;;;;;;;9.83;2.35;;;;;;;3.56;81.07;99879.23;1736022;82;21025;-83
2022/02/05 04:58:01;;;;;;;8.28;2.33;;;;;;;3.56;81.03;99875.33;1733004;81;20994;-84
2022/02/05 05:00:42;;;;;;;12.73;2.17;;;;;;;3.56;81.01;99891.82;1734877;81;20977;-84
2022/02/05 05:08:33;;;;;;;9.00;2.02;;;;;;;3.62;80.95;99903.80;1736775;82;21013;-87
2022/02/05 05:13:20;;;;;;;10.40;3.55;;;;;;;3.69;80.84;99920.09;1736653;82;20973;-88
2022/02/05 05:21:11;;;;;;;11.83;2.70;;;;;;;3.78;80.59;99948.63;1736377;81;20997;-88
2022/02/05 05:23:38;;;;;;;17.80;7.60;;;;;;;3.81;80.49;99939.63;1736434;82;20985;-85
2022/02/05 05:26:04;;;;;;;17.52;8.60;;;;;;;3.83;80.35;99953.19;1736257;82;21483;-86
2022/02/05 05:28:31;;;;;;;11.88;3.22;;;;;;;3.87;80.36;99947.27;1736434;82;20981;-85
2022/02/05 05:30:58;;;;;;;19.40;4.00;;;;;;;3.86;80.11;99962.83;1736363;82;21738;-87
2022/02/05 05:33:24;;;;;;;15.43;3.00;;;;;;;3.83;79.95;99963.61;1736400;81;21487;-86
2022/02/05 05:35:51;;;;;;;12.43;2.83;;;;;;;3.78;79.81;99969.03;1736397;82;21052;-86
2022/02/05 05:38:18;;;;;;;31.93;11.57;;;;;;;3.73;79.68;99983.58;1736523;82;21018;-87
2022/02/05 05:40:45;;;;;;;42.35;14.87;;;;;;;3.73;79.75;99977.48;1736392;81;21021;-86
2022/02/05 05:43:30;;;;;;;52.93;19.02;;;;;;;3.74;79.78;99990.99;1735987;82;22430;-83
2022/02/05 05:48:44;;;;;;;26.33;11.80;;;;;;;3.77;79.82;100010.62;1739576;81;21100;-84
2022/02/05 05:50:59;;;;;;;21.30;7.62;;;;;;;3.82;79.80;100013.87;1757600;80;20965;-85
2022/02/05 05:53:26;;;;;;;14.35;3.90;;;;;;;3.87;79.71;100012.78;1758500;81;20972;-85
2022/02/05 05:55:53;;;;;;;17.50;3.67;;;;;;;3.90;79.57;100032.41;1749170;82;22071;-84
2022/02/05 05:58:20;;;;;;;13.65;2.75;;;;;;;3.95;79.51;100023.08;1749462;82;20957;-84
2022/02/05 06:00:51;;;;;;;16.15;2.75;;;;;;;3.99;79.34;100028.88;1749277;82;21917;-85
2022/02/05 06:03:16;;;;;;;12.35;2.65;;;;;;;4.00;79.15;100035.88;1747651;80;21036;-86
2022/02/05 06:05:42;;;;;;;11.50;2.33;;;;;;;4.04;79.13;100043.39;1749195;82;20996;-85
2022/02/05 06:08:09;;;;;;;17.75;3.22;;;;;;;4.09;79.10;100044.44;1749219;82;21695;-85
2022/02/05 06:10:36;;;;;;;11.50;2.77;;;;;;;4.12;78.92;100048.91;1749285;82;21016;-85
2022/02/05 06:13:03;;;;;;;11.30;2.50;;;;;;;4.13;78.80;100053.27;1749161;82;21116;-85
2022/02/05 06:15:30;;;;;;;15.65;3.20;;;;;;;4.15;78.81;100056.43;1749474;82;21000;-85
2022/02/05 06:17:56;;;;;;;15.68;3.62;;;;;;;4.17;78.74;100063.01;1730306;82;21005;-84
2022/02/05 06:20:23;;;;;;;19.95;3.83;;;;;;;4.18;78.62;100062.16;1749638;82;22336;-86
2022/02/05 06:22:49;;;;;;;12.37;2.75;;;;;;;4.18;78.69;100070.86;1749387;82;21004;-85
2022/02/05 06:25:16;;;;;;;15.65;3.15;;;;;;;4.20;78.64;100073.53;1749454;82;21936;-85
2022/02/05 06:27:43;;;;;;;21.40;4.08;;;;;;;4.20;78.54;100080.04;1749409;82;21166;-86
2022/02/05 06:30:11;;;;;;;14.83;2.98;;;;;;;4.18;78.47;100079.09;1756410;80;21425;-86
2022/02/05 06:32:38;;;;;;;19.23;3.10;;;;;;;4.15;78.36;100089.38;1777659;80;21742;-86
2022/02/05 06:35:05;;;;;;;9.63;3.33;;;;;;;4.12;78.35;100087.97;1783597;80;21058;-86
2022/02/05 06:37:32;;;;;;;17.32;4.53;;;;;;;4.13;78.31;100101.45;1782963;80;21014;-82
2022/02/05 06:39:59;;;;;;;18.17;4.47;;;;;;;4.12;78.31;100090.16;1782832;80;20998;-83
2022/02/05 06:42:25;;;;;;;11.05;3.22;;;;;;;4.09;78.14;100101.34;1782831;80;21424;-83
2022/02/05 06:44:52;;;;;;;16.05;3.62;;;;;;;4.04;78.03;100108.08;1756259;80;22476;-85
2022/02/05 06:47:19;;;;;;;14.20;4.05;;;;;;;4.04;78.19;100115.02;1749462;81;21471;-87
2022/02/05 06:49:46;;;;;;;12.47;3.25;;;;;;;4.08;78.23;100116.48;1752456;81;20959;-87
2022/02/05 06:52:14;;;;;;;13.72;3.22;;;;;;;4.14;78.24;100120.17;1754662;81;20986;-83
2022/02/05 06:54:40;;;;;;;12.18;3.33;;;;;;;4.17;78.15;100124.22;1750702;81;21048;-86
2022/02/05 06:57:07;;;;;;;20.12;4.42;;;;;;;4.21;78.09;100128.30;1746601;80;21879;-86
2022/02/05 06:59:34;;;;;;;12.05;3.60;;;;;;;4.24;77.96;100130.12;1746701;82;20986;-86
2022/02/05 07:02:01;;;;;;;18.50;3.58;;;;;;;4.19;77.74;100126.47;1746389;82;21007;-85
2022/02/05 07:04:27;;;;;;;10.58;3.17;;;;;;;4.14;77.63;100134.08;1747240;82;20947;-87
2022/02/05 07:06:57;;;;;;;16.40;3.37;;;;;;;4.06;77.55;100137.67;1746479;81;21488;-84
2022/02/05 07:09:26;;;;;;;14.68;3.20;;;;;;;4.00;77.63;100143.94;1746519;81;21772;-82
2022/02/05 07:11:55;;;;;;;12.00;2.50;;;;;;;4.02;77.75;100150.52;1712608;82;21082;-82
2022/02/05 07:14:24;;;;;;;13.95;3.50;;;;;;;4.00;77.77;100141.76;1712689;82;20953;-82
2022/02/05 07:17:00;;;;;;;10.03;3.17;;;;;;;4.01;77.79;100147.42;1713091;83;21066;-90
2022/02/05 07:19:27;;;;;;;14.10;3.92;;;;;;;4.00;77.79;100150.45;1712067;83;21469;-83
2022/02/05 07:21:51;;;;;;;13.60;3.67;;;;;;;4.00;77.81;100152.17;1712239;82;21891;-82
2022/02/05 07:29:26;;;;;;;14.55;3.75;;;;;;;4.08;77.95;100158.16;1696236;82;21149;-84
2022/02/05 07:31:57;;;;;;;13.05;3.70;;;;;;;4.12;77.89;100161.78;1713426;83;21004;-86
2022/02/05 07:34:28;;;;;;;14.75;3.65;;;;;;;4.11;77.83;100163.92;1713330;83;22542;-84
2022/02/05 07:36:59;;;;;;;15.45;3.33;;;;;;;4.10;77.89;100167.34;1712653;83;20976;-89
2022/02/05 07:39:24;;;;;;;11.00;3.83;;;;;;;4.17;77.99;100176.31;1713865;83;20969;-90
2022/02/05 07:41:50;;;;;;;13.32;3.25;;;;;;;4.19;77.93;100183.36;1713217;83;20967;-92
2022/02/05 07:44:17;;;;;;;17.02;3.27;;;;;;;4.23;78.05;100185.67;1693345;83;21034;-89
2022/02/05 07:46:47;;;;;;;13.58;3.10;;;;;;;4.32;78.19;100191.27;1713476;83;21754;-88
2022/02/05 07:49:14;;;;;;;12.82;3.05;;;;;;;4.36;78.21;100185.34;1713283;81;20982;-87
2022/02/05 07:51:41;;;;;;;7.78;2.45;;;;;;;4.43;78.25;100199.50;1713721;83;21490;-87
2022/02/05 07:54:10;;;;;;;9.98;2.42;;;;;;;4.46;78.21;100193.12;1713656;83;21107;-91
2022/02/05 07:56:37;;;;;;;14.47;2.35;;;;;;;4.48;78.31;100196.67;1713756;81;21002;-89
2022/02/05 07:59:03;;;;;;;7.58;2.02;;;;;;;4.52;78.46;100197.69;1713159;83;21798;-86
2022/02/05 08:01:30;;;;;;;11.30;2.83;;;;;;;4.60;78.50;100202.81;1713015;82;20986;-84
2022/02/05 08:03:57;;;;;;;7.53;2.30;;;;;;;4.60;78.13;100197.61;1713064;82;20974;-86
2022/02/05 08:06:23;;;;;;;9.43;2.47;;;;;;;4.57;78.19;100196.17;1712612;82;21093;-83
2022/02/05 08:08:54;;;;;;;13.40;4.50;;;;;;;4.52;77.90;100198.99;1712825;82;21030;-82
2022/02/05 08:11:21;;;;;;;16.57;5.10;;;;;;;4.41;77.85;100203.37;1713243;81;21595;-88
2022/02/05 08:13:50;;;;;;;13.62;4.37;;;;;;;4.47;78.26;100210.55;1713358;82;21003;-87
2022/02/05 08:16:44;;;;;;;11.57;4.55;;;;;;;4.59;78.48;100216.24;1713233;82;21539;-87
2022/02/05 08:18:55;;;;;;;11.93;4.35;;;;;;;4.64;78.43;100214.72;1710799;83;21062;-85
2022/02/05 08:21:22;;;;;;;13.25;4.47;;;;;;;4.66;78.17;100216.97;1713491;83;20970;-87
2022/02/05 08:23:48;;;;;;;9.45;3.15;;;;;;;4.64;78.19;100217.33;1713607;83;21296;-86
2022/02/05 08:26:15;;;;;;;9.50;4.12;;;;;;;4.71;78.23;100224.08;1713346;83;21488;-86
2022/02/05 08:28:42;;;;;;;14.33;4.60;;;;;;;4.75;78.25;100229.89;1713239;83;20963;-85
2022/02/05 08:31:09;;;;;;;14.45;4.80;;;;;;;4.93;78.63;100224.09;1708566;83;20968;-85
2022/02/05 08:33:41;;;;;;;14.63;4.80;;;;;;;5.16;78.63;100226.31;1750554;82;21054;-84
2022/02/05 08:36:04;;;;;;;23.50;6.17;;;;;;;5.34;78.56;100227.41;1738937;82;21691;-85
2022/02/05 08:38:31;;;;;;;47.83;19.37;;;;;;;5.42;78.20;100232.52;1775223;80;21848;-85
2022/02/05 08:40:58;;;;;;;17.42;6.42;;;;;;;5.54;78.20;100225.55;1782941;80;21523;-85
2022/02/05 08:43:25;;;;;;;18.65;4.75;;;;;;;5.62;77.99;100225.41;1782919;80;21139;-85
2022/02/05 08:45:51;;;;;;;16.10;3.25;;;;;;;5.72;77.90;100225.73;1783109;80;21112;-85
2022/02/05 08:48:19;;;;;;;13.30;3.10;;;;;;;5.80;77.58;100226.50;1783254;80;21881;-85
2022/02/05 08:50:46;;;;;;;11.85;3.05;;;;;;;5.83;77.29;100239.64;1779391;80;21445;-85
2022/02/05 08:53:18;;;;;;;7.40;2.35;;;;;;;5.81;77.09;100256.10;1754622;81;20970;-85
2022/02/05 08:55:41;;;;;;;5.92;2.00;;;;;;;5.70;76.76;100259.62;1735209;81;20966;-86
2022/02/05 08:58:09;;;;;;;6.03;2.20;;;;;;;5.50;76.48;100250.16;1754592;81;21562;-85
2022/02/05 09:00:44;;;;;;;8.33;2.00;;;;;;;5.38;76.61;100251.91;1754241;80;21975;-85
2022/02/05 09:03:10;;;;;;;5.15;1.82;;;;;;;5.25;76.53;100250.16;1753293;81;21021;-85
2022/02/05 09:05:43;;;;;;;4.67;1.37;;;;;;;5.02;76.35;100251.84;1753793;81;20986;-86
2022/02/05 09:08:08;;;;;;;6.60;1.82;;;;;;;4.83;76.36;100261.97;1752854;81;21134;-86
2022/02/05 09:10:54;;;;;;;5.08;2.65;;;;;;;4.66;76.51;100261.29;1753769;81;21005;-86
2022/02/05 09:13:36;;;;;;;5.03;2.00;;;;;;;4.41;76.74;100242.46;1752477;81;22527;-85
2022/02/05 09:15:41;;;;;;;5.00;2.17;;;;;;;4.60;77.20;100276.69;1755242;81;21037;-85
2022/02/05 09:18:07;;;;;;;4.00;2.15;;;;;;;4.75;77.68;100276.42;1735153;81;21001;-85
2022/02/05 09:20:34;;;;;;;6.28;2.47;;;;;;;4.92;77.81;100285.32;1754619;81;21171;-85
2022/02/05 09:23:02;;;;;;;5.17;2.50;;;;;;;4.98;77.64;100285.17;1754679;80;20993;-85
2022/02/05 09:25:29;;;;;;;8.45;2.40;;;;;;;4.99;77.55;100294.78;1754456;81;22408;-85
2022/02/05 09:27:56;;;;;;;7.33;2.67;;;;;;;5.01;77.44;100293.52;1754496;80;21068;-85
2022/02/05 09:30:31;;;;;;;5.10;2.90;;;;;;;5.08;77.58;100293.36;1754435;80;20974;-84
2022/02/05 09:32:51;;;;;;;8.80;3.35;;;;;;;5.22;77.67;100296.11;1754030;81;21186;-85
2022/02/05 09:35:18;;;;;;;8.80;3.75;;;;;;;5.24;77.28;100298.36;1754586;81;21005;-84
2022/02/05 09:37:44;;;;;;;8.63;3.55;;;;;;;5.11;77.02;100286.97;1753805;81;21727;-84
2022/02/05 09:40:11;;;;;;;7.17;3.60;;;;;;;4.98;77.00;100281.68;1753756;80;21474;-84
2022/02/05 09:42:46;;;;;;;6.83;2.95;;;;;;;4.93;77.13;100281.90;1753843;80;21048;-84
2022/02/05 09:45:14;;;;;;;6.83;2.95;;;;;;;4.90;77.29;100289.59;1753803;80;20950;-84
2022/02/05 09:47:40;;;;;;;6.00;2.85;;;;;;;5.01;77.63;100286.61;1754746;81;20966;-86
2022/02/05 09:50:08;;;;;;;5.35;2.42;;;;;;;5.14;77.55;100286.64;1750665;81;21745;-85
2022/02/05 09:52:34;;;;;;;8.85;3.92;;;;;;;5.23;77.59;100290.92;1743281;81;21002;-85
2022/02/05 09:55:01;;;;;;;11.00;6.70;;;;;;;5.39;77.71;100297.64;1743309;81;21593;-84
2022/02/05 09:57:28;;;;;;;8.23;3.50;;;;;;;5.51;77.60;100289.38;1742733;82;20986;-84
2022/02/05 10:00:00;;;;;;;5.72;3.12;;;;;;;5.53;77.33;100295.55;1742734;82;21029;-84
2022/02/05 10:02:30;;;;;;;6.45;2.65;;;;;;;5.53;77.22;100292.05;1745484;81;21747;-84
2022/02/05 10:05:01;;;;;;;;;;;;;;;5.51;77.05;100293.72;1745365;81;21030;-83
2022/02/05 10:07:27;;;;;;;4.60;2.50;;;;;;;5.49;77.02;100299.30;1742693;82;20625;-84
2022/02/05 10:10:02;;;;;;;5.97;2.05;;;;;;;5.55;77.15;100303.02;1742750;81;21116;-84
2022/02/05 10:12:28;;;;;;;3.47;2.08;;;;;;;5.50;76.79;100304.59;1743093;81;21002;-85
2022/02/05 10:14:56;;;;;;;5.05;2.33;;;;;;;5.33;76.47;100300.03;1743552;82;21750;-85
2022/02/05 10:17:43;;;;;;;4.90;2.08;;;;;;;5.15;76.36;100308.44;1743464;81;20959;-86
2022/02/05 10:20:12;;;;;;;4.28;1.65;;;;;;;4.98;76.35;100306.03;1743717;82;20994;-86
2022/02/05 10:22:42;;;;;;;4.90;2.20;;;;;;;4.84;76.53;100312.00;1743651;82;21593;-84
2022/02/05 10:25:27;;;;;;;5.05;2.05;;;;;;;4.81;76.91;100301.44;1742622;81;20970;-86
2022/02/05 10:27:54;;;;;;;4.10;2.17;;;;;;;4.79;76.97;100299.19;1743566;82;21800;-84
2022/02/05 10:30:28;;;;;;;3.27;2.12;;;;;;;4.76;77.03;100300.34;1743450;81;21022;-86
2022/02/05 10:33:12;;;;;;;3.45;1.92;;;;;;;4.75;77.12;100302.50;1743622;82;21006;-86
2022/02/05 10:36:01;;;;;;;3.85;2.20;;;;;;;4.73;76.99;100301.55;1743329;82;21046;-86
2022/02/05 10:44:15;;;;;;;4.05;1.72;;;;;;;4.71;76.89;100312.72;1743579;82;21014;-86
2022/02/05 10:46:44;;;;;;;5.12;2.15;;;;;;;4.74;76.96;100302.01;1743519;81;20999;-85
2022/02/05 10:49:12;;;;;;;6.22;2.77;;;;;;;4.80;76.95;100313.10;1743493;81;21022;-85
2022/02/05 10:51:45;;;;;;;5.35;1.82;;;;;;;4.85;76.88;100302.45;1722281;82;20974;-85
2022/02/05 10:54:31;;;;;;;4.40;1.85;;;;;;;4.91;76.87;100314.86;1743415;81;21884;-86
2022/02/05 10:57:07;;;;;;;4.78;2.22;;;;;;;4.94;76.39;100305.86;1740672;82;21468;-85
2022/02/05 11:05:39;;;;;;;6.35;1.92;;;;;;;5.06;76.51;100332.42;1708588;82;20997;-86
2022/02/05 11:08:03;;;;;;;6.87;2.77;;;;;;;5.14;76.58;100327.09;1710016;82;21753;-85
2022/02/05 11:10:37;;;;;;;5.72;2.00;;;;;;;5.26;76.97;100343.67;1725905;81;21021;-85
2022/02/05 11:20:51;;;;;;;6.22;2.33;;;;;;;5.26;76.52;100361.52;1733356;82;21789;-86
2022/02/05 11:23:21;;;;;;;4.65;1.95;;;;;;;5.25;76.74;100361.05;1733388;82;20987;-87
2022/02/05 11:25:48;;;;;;;7.62;2.83;;;;;;;5.33;76.74;100360.05;1733589;81;21038;-85
2022/02/05 11:28:15;;;;;;;6.20;2.60;;;;;;;5.26;76.33;100359.33;1733374;82;21017;-87
2022/02/05 11:30:51;;;;;;;6.70;3.58;;;;;;;5.16;76.21;100366.29;1726833;82;21026;-88
2022/02/05 11:33:25;;;;;;;15.88;6.15;;;;;;;5.04;76.32;100368.87;1732601;81;21770;-87
2022/02/05 11:38:29;;;;;;;10.00;4.10;;;;;;;5.02;76.92;100370.53;1704591;82;20979;-88
2022/02/05 11:40:57;;;;;;;9.95;4.05;;;;;;;5.23;77.05;100373.12;1680802;83;21173;-84
2022/02/05 11:43:30;;;;;;;7.37;3.20;;;;;;;5.38;76.88;100366.32;1687111;83;21021;-86
2022/02/05 11:46:13;;;;;;;15.90;4.42;;;;;;;5.39;76.34;100362.89;1696005;82;22614;-85
2022/02/05 11:48:43;;;;;;;7.90;2.90;;;;;;;5.36;76.35;100368.41;1695822;83;21026;-86
2022/02/05 11:51:23;;;;;;;11.50;3.17;;;;;;;5.32;76.10;100370.00;1704079;83;20995;-85
2022/02/05 11:54:05;;;;;;;13.83;3.08;;;;;;;5.25;76.08;100366.27;1682078;84;21221;-84
2022/02/05 11:57:02;;;;;;;8.93;2.87;;;;;;;5.23;76.01;100362.68;1682374;84;21537;-81
2022/02/05 11:59:27;;;;;;;8.35;2.52;;;;;;;5.24;76.01;100368.81;1681488;83;21924;-84
2022/02/05 12:02:21;;;;;;;9.90;2.92;;;;;;;5.22;75.59;100375.27;1685723;82;21013;-82
2022/02/05 12:05:09;;;;;;;12.50;3.40;;;;;;;5.15;75.20;100379.76;1701571;81;21109;-83
2022/02/05 12:07:36;;;;;;;13.05;3.62;;;;;;;5.11;75.38;100380.89;1700258;82;21056;-83
2022/02/05 12:10:40;;;;;;;12.98;3.67;;;;;;;5.12;75.46;100382.66;1671994;83;37056;-83
2022/02/05 12:13:34;;;;;;;14.35;4.10;;;;;;;5.12;75.21;100375.70;1682540;83;20993;-88
2022/02/05 12:16:02;;;;;;;8.70;2.77;;;;;;;5.15;75.36;100379.76;1709931;82;20982;-86
2022/02/05 12:18:31;;;;;;;12.05;3.65;;;;;;;5.15;74.91;100382.37;1709874;84;21517;-85
2022/02/05 12:21:07;;;;;;;9.65;3.02;;;;;;;5.13;74.84;100373.59;1689810;82;21084;-84
2022/02/05 12:26:20;;;;;;;11.45;3.55;;;;;;;5.16;74.55;100374.12;1709881;84;21734;-87
2022/02/05 12:28:50;;;;;;;14.73;4.62;;;;;;;5.29;74.78;100376.81;1709955;82;20988;-86
2022/02/05 12:31:26;;;;;;;17.20;4.55;;;;;;;5.39;74.69;100369.84;1710019;83;21439;-88
2022/02/05 12:33:56;;;;;;;;;;;;;;;5.50;74.72;100379.37;1711876;83;21015;-90
2022/02/05 12:36:41;;;;;;;11.12;3.00;;;;;;;5.56;74.46;100364.86;1709463;84;20161;-83
2022/02/05 12:39:14;;;;;;;16.45;5.00;;;;;;;5.66;74.28;100366.10;1709260;82;22430;-84
2022/02/05 12:42:00;;;;;;;15.60;3.70;;;;;;;5.70;73.89;100369.72;1708834;83;21504;-84
2022/02/05 12:44:29;;;;;;;18.20;3.37;;;;;;;5.75;73.81;100379.52;1709189;84;21031;-84
2022/02/05 12:47:11;;;;;;;11.03;3.37;;;;;;;5.89;73.68;100380.02;1709148;82;21011;-83
2022/02/05 12:49:47;;;;;;;14.28;3.98;;;;;;;5.99;73.36;100382.63;1709049;83;21568;-83
2022/02/05 12:52:05;;;;;;;10.38;2.77;;;;;;;6.05;73.11;100388.50;1695879;83;21762;-81
2022/02/05 12:54:34;;;;;;;12.25;4.33;;;;;;;6.00;72.81;100391.80;1695319;83;21486;-82
2022/02/05 12:57:01;;;;;;;9.35;3.37;;;;;;;5.93;72.69;100389.78;1695560;83;21075;-85
2022/02/05 12:59:35;;;;;;;12.45;3.05;;;;;;;5.85;72.67;100388.16;1695905;83;20992;-83
2022/02/05 13:02:07;;;;;;;9.43;3.30;;;;;;;5.80;72.70;100385.81;1695838;83;21016;-83
2022/02/05 13:04:41;;;;;;;11.05;3.35;;;;;;;5.71;72.52;100395.02;1674232;84;21824;-83
2022/02/05 13:07:25;;;;;;;10.35;4.12;;;;;;;5.65;72.69;100399.17;1694920;83;20970;-82
2022/02/05 13:10:03;;;;;;;12.18;4.67;;;;;;;5.60;72.69;100414.17;1693910;84;20979;-83
2022/02/05 13:12:39;;;;;;;14.47;5.65;;;;;;;5.56;72.70;100418.38;1694209;82;20990;-83
2022/02/05 13:15:28;;;;;;;11.03;3.65;;;;;;;5.60;72.90;100409.84;1694275;84;21038;-82
2022/02/05 13:34:02;;;;;;;16.52;5.62;;;;;;;5.48;72.23;100426.73;1694430;84;21483;-82
2022/02/05 13:36:38;;;;;;;9.25;2.92;;;;;;;5.43;72.39;100427.86;1692583;82;21041;-81
2022/02/05 13:41:48;;;;;;;12.75;3.08;;;;;;;5.18;72.22;100450.73;1742960;82;21468;-81
2022/02/05 13:44:15;;;;;;;11.30;3.12;;;;;;;5.06;72.36;100448.51;1724566;82;21750;-85
2022/02/05 13:46:38;;;;;;;13.00;4.30;;;;;;;4.95;72.40;100438.03;1695581;84;20998;-82
2022/02/05 13:49:16;;;;;;;9.48;3.15;;;;;;;4.90;72.72;100444.77;1695847;84;21037;-82
2022/02/05 13:51:43;;;;;;;12.55;3.17;;;;;;;4.85;72.81;100451.10;1696006;82;21534;-83
2022/02/05 13:54:09;;;;;;;9.88;3.25;;;;;;;4.84;73.01;100472.77;1695583;84;21057;-82
2022/02/05 13:56:36;;;;;;;8.58;2.52;;;;;;;4.80;72.98;100460.02;1695805;83;21781;-83
2022/02/05 13:59:03;;;;;;;8.50;2.15;;;;;;;4.73;72.95;100474.02;1695757;84;21009;-82
2022/02/05 14:01:37;;;;;;;7.92;3.00;;;;;;;4.63;73.07;100462.30;1695846;82;21425;-84
2022/02/05 14:04:24;;;;;;;12.70;3.40;;;;;;;4.54;73.12;100470.59;1695945;84;21010;-85
2022/02/05 14:06:56;;;;;;;13.00;3.30;;;;;;;4.49;73.39;100481.25;1696002;82;21010;-83
2022/02/05 14:09:32;;;;;;;8.93;3.50;;;;;;;4.54;73.82;100485.34;1695862;84;22417;-83
2022/02/05 14:12:19;;;;;;;10.90;3.70;;;;;;;4.57;73.95;100481.17;1695803;84;21003;-83
2022/02/05 14:15:02;;;;;;;11.00;3.67;;;;;;;4.54;73.96;100474.92;1695743;82;21074;-83
2022/02/05 14:17:29;;;;;;;14.05;3.77;;;;;;;4.48;73.96;100477.73;1694548;82;20993;-83
2022/02/05 14:20:09;;;;;;;13.05;3.62;;;;;;;4.38;73.96;100484.66;1695896;82;21498;-82
2022/02/05 14:22:37;;;;;;;11.05;3.55;;;;;;;4.31;74.03;100496.92;1695706;84;21734;-83
2022/02/05 14:25:29;;;;;;;10.75;3.37;;;;;;;4.22;74.12;100493.89;1695905;82;21135;-83
2022/02/05 14:28:12;;;;;;;13.50;4.08;;;;;;;4.18;74.25;100489.37;1694657;83;21021;-82
2022/02/05 14:30:36;;;;;;;11.60;3.95;;;;;;;4.12;74.39;100491.70;1695105;82;21021;-82